Terminal Aerodrome Forecast
Issued by NWS

Home | Current Version | Previous Version | Text Only | Print | Product List | Glossary On
Versions: 1 2 3 4 5 6 7 8 9 10 11 12 13
000
FTUS46 KSGX 291122
TAFSNA
TAF
KSNA 291122Z 2912/3012 VRB05KT P6SM OVC010
     FM291700 VRB04KT P6SM SCT014 SCT200
     FM291900 22009KT P6SM SCT200
     FM300200 20005KT P6SM SCT015 SCT200
     FM300600 VRB04KT P6SM OVC012=

USA.gov is the U.S. government's official web portal to all federal, state and local government web resources and services.